sensor_id;sensor_type;location;lat;lon;timestamp;P1;durP1;ratioP1;P2;durP2;ratioP2
78781;SDS011;68126;55.748;48.742;2023-11-21T00:02:46;3.85;;;3.55;;
78781;SDS011;68126;55.748;48.742;2023-11-21T00:08:11;5.85;;;2.33;;
78781;SDS011;68126;55.748;48.742;2023-11-21T00:13:36;7.15;;;5.97;;
78781;SDS011;68126;55.748;48.742;2023-11-21T00:19:01;6.37;;;4.97;;
78781;SDS011;68126;55.748;48.742;2023-11-21T00:24:26;5.05;;;3.87;;
78781;SDS011;68126;55.748;48.742;2023-11-21T00:29:50;6.83;;;4.60;;
78781;SDS011;68126;55.748;48.742;2023-11-21T00:35:15;6.75;;;4.22;;
78781;SDS011;68126;55.748;48.742;2023-11-21T00:40:40;4.17;;;2.50;;
78781;SDS011;68126;55.748;48.742;2023-11-21T00:46:05;6.80;;;6.20;;
78781;SDS011;68126;55.748;48.742;2023-11-21T00:51:30;4.12;;;2.47;;
78781;SDS011;68126;55.748;48.742;2023-11-21T00:56:55;6.78;;;6.17;;
78781;SDS011;68126;55.748;48.742;2023-11-21T01:02:19;7.10;;;5.00;;
78781;SDS011;68126;55.748;48.742;2023-11-21T01:07:44;4.22;;;3.30;;
78781;SDS011;68126;55.748;48.742;2023-11-21T01:13:09;6.35;;;4.45;;
78781;SDS011;68126;55.748;48.742;2023-11-21T01:24:18;4.80;;;3.60;;
78781;SDS011;68126;55.748;48.742;2023-11-21T01:29:43;4.28;;;3.90;;
78781;SDS011;68126;55.748;48.742;2023-11-21T01:35:08;4.08;;;2.12;;
78781;SDS011;68126;55.748;48.742;2023-11-21T01:40:33;7.62;;;4.20;;
78781;SDS011;68126;55.748;48.742;2023-11-21T01:45:58;4.70;;;4.22;;
78781;SDS011;68126;55.748;48.742;2023-11-21T01:51:22;5.05;;;4.60;;
78781;SDS011;68126;55.748;48.742;2023-11-21T01:56:48;5.12;;;4.67;;
78781;SDS011;68126;55.748;48.742;2023-11-21T02:02:13;5.97;;;5.47;;
78781;SDS011;68126;55.748;48.742;2023-11-21T02:07:38;5.62;;;4.78;;
78781;SDS011;68126;55.748;48.742;2023-11-21T02:13:04;4.70;;;4.30;;
78781;SDS011;68126;55.748;48.742;2023-11-21T02:18:29;3.70;;;3.40;;
78781;SDS011;68126;55.748;48.742;2023-11-21T02:23:54;4.95;;;4.55;;
78781;SDS011;68126;55.748;48.742;2023-11-21T02:29:20;7.75;;;3.85;;
78781;SDS011;68126;55.748;48.742;2023-11-21T02:34:46;5.22;;;4.08;;
78781;SDS011;68126;55.748;48.742;2023-11-21T02:40:12;4.22;;;3.80;;
78781;SDS011;68126;55.748;48.742;2023-11-21T02:45:58;4.28;;;3.62;;
78781;SDS011;68126;55.748;48.742;2023-11-21T02:51:23;5.28;;;4.85;;
78781;SDS011;68126;55.748;48.742;2023-11-21T02:56:48;4.97;;;4.60;;
78781;SDS011;68126;55.748;48.742;2023-11-21T03:02:13;4.72;;;4.12;;
78781;SDS011;68126;55.748;48.742;2023-11-21T03:07:38;5.17;;;4.70;;
78781;SDS011;68126;55.748;48.742;2023-11-21T03:13:02;6.17;;;5.60;;
78781;SDS011;68126;55.748;48.742;2023-11-21T03:18:27;5.97;;;4.03;;
78781;SDS011;68126;55.748;48.742;2023-11-21T03:23:52;4.50;;;3.62;;
78781;SDS011;68126;55.748;48.742;2023-11-21T03:29:16;5.80;;;5.17;;
78781;SDS011;68126;55.748;48.742;2023-11-21T03:35:12;4.22;;;3.80;;
78781;SDS011;68126;55.748;48.742;2023-11-21T03:40:08;7.17;;;3.42;;
78781;SDS011;68126;55.748;48.742;2023-11-21T03:45:34;4.25;;;3.87;;
78781;SDS011;68126;55.748;48.742;2023-11-21T03:50:59;7.80;;;4.28;;
78781;SDS011;68126;55.748;48.742;2023-11-21T03:56:24;6.30;;;4.53;;
78781;SDS011;68126;55.748;48.742;2023-11-21T04:01:48;5.90;;;5.42;;
78781;SDS011;68126;55.748;48.742;2023-11-21T04:07:13;6.17;;;4.97;;
78781;SDS011;68126;55.748;48.742;2023-11-21T04:12:38;5.67;;;4.95;;
78781;SDS011;68126;55.748;48.742;2023-11-21T04:18:03;4.90;;;4.05;;
78781;SDS011;68126;55.748;48.742;2023-11-21T04:23:28;5.95;;;5.40;;
78781;SDS011;68126;55.748;48.742;2023-11-21T04:29:13;5.83;;;5.33;;
78781;SDS011;68126;55.748;48.742;2023-11-21T04:34:38;5.92;;;5.40;;
78781;SDS011;68126;55.748;48.742;2023-11-21T04:40:03;3.92;;;2.83;;
78781;SDS011;68126;55.748;48.742;2023-11-21T04:45:28;5.20;;;4.80;;
78781;SDS011;68126;55.748;48.742;2023-11-21T04:50:53;5.58;;;4.17;;
78781;SDS011;68126;55.748;48.742;2023-11-21T04:56:18;5.00;;;4.12;;
78781;SDS011;68126;55.748;48.742;2023-11-21T05:01:43;5.25;;;4.75;;
78781;SDS011;68126;55.748;48.742;2023-11-21T05:07:08;5.25;;;4.42;;
78781;SDS011;68126;55.748;48.742;2023-11-21T05:12:32;5.85;;;4.15;;
78781;SDS011;68126;55.748;48.742;2023-11-21T05:18:17;5.15;;;4.62;;
78781;SDS011;68126;55.748;48.742;2023-11-21T05:23:42;7.35;;;4.40;;
78781;SDS011;68126;55.748;48.742;2023-11-21T05:29:07;6.65;;;5.10;;
78781;SDS011;68126;55.748;48.742;2023-11-21T05:34:33;4.65;;;2.80;;
78781;SDS011;68126;55.748;48.742;2023-11-21T05:39:57;7.42;;;5.30;;
78781;SDS011;68126;55.748;48.742;2023-11-21T05:45:23;5.22;;;4.72;;
78781;SDS011;68126;55.748;48.742;2023-11-21T05:50:48;6.87;;;5.62;;
78781;SDS011;68126;55.748;48.742;2023-11-21T05:56:13;5.90;;;2.75;;
78781;SDS011;68126;55.748;48.742;2023-11-21T06:01:39;7.05;;;4.72;;
78781;SDS011;68126;55.748;48.742;2023-11-21T06:07:04;5.78;;;4.70;;
78781;SDS011;68126;55.748;48.742;2023-11-21T06:12:29;5.15;;;3.22;;
78781;SDS011;68126;55.748;48.742;2023-11-21T06:17:55;5.95;;;2.98;;
78781;SDS011;68126;55.748;48.742;2023-11-21T06:23:20;8.00;;;7.17;;
78781;SDS011;68126;55.748;48.742;2023-11-21T06:28:45;6.62;;;5.92;;
78781;SDS011;68126;55.748;48.742;2023-11-21T06:34:10;8.03;;;5.62;;
78781;SDS011;68126;55.748;48.742;2023-11-21T06:39:35;9.05;;;6.00;;
78781;SDS011;68126;55.748;48.742;2023-11-21T06:45:00;7.10;;;3.83;;
78781;SDS011;68126;55.748;48.742;2023-11-21T06:50:27;11.00;;;7.62;;
78781;SDS011;68126;55.748;48.742;2023-11-21T06:55:51;8.85;;;4.90;;
78781;SDS011;68126;55.748;48.742;2023-11-21T07:01:16;8.18;;;7.20;;
78781;SDS011;68126;55.748;48.742;2023-11-21T07:06:41;9.58;;;7.62;;
78781;SDS011;68126;55.748;48.742;2023-11-21T07:12:06;8.23;;;6.45;;
78781;SDS011;68126;55.748;48.742;2023-11-21T07:17:31;8.13;;;6.30;;
78781;SDS011;68126;55.748;48.742;2023-11-21T07:22:57;9.08;;;7.72;;
78781;SDS011;68126;55.748;48.742;2023-11-21T07:28:22;7.40;;;4.80;;
78781;SDS011;68126;55.748;48.742;2023-11-21T07:33:48;6.67;;;6.08;;
78781;SDS011;68126;55.748;48.742;2023-11-21T07:39:13;9.63;;;7.72;;
78781;SDS011;68126;55.748;48.742;2023-11-21T07:44:57;8.05;;;6.58;;
78781;SDS011;68126;55.748;48.742;2023-11-21T07:50:22;12.28;;;7.40;;
78781;SDS011;68126;55.748;48.742;2023-11-21T07:55:48;11.10;;;7.60;;
78781;SDS011;68126;55.748;48.742;2023-11-21T08:01:13;9.18;;;5.83;;
78781;SDS011;68126;55.748;48.742;2023-11-21T08:12:49;9.55;;;7.78;;
78781;SDS011;68126;55.748;48.742;2023-11-21T08:18:13;14.00;;;7.78;;
78781;SDS011;68126;55.748;48.742;2023-11-21T08:23:39;9.00;;;5.35;;
78781;SDS011;68126;55.748;48.742;2023-11-21T08:29:04;9.55;;;5.53;;
78781;SDS011;68126;55.748;48.742;2023-11-21T08:34:31;12.07;;;7.37;;
78781;SDS011;68126;55.748;48.742;2023-11-21T08:39:57;12.55;;;6.47;;
78781;SDS011;68126;55.748;48.742;2023-11-21T08:45:41;11.95;;;7.30;;
78781;SDS011;68126;55.748;48.742;2023-11-21T08:51:09;9.10;;;6.30;;
78781;SDS011;68126;55.748;48.742;2023-11-21T08:56:33;9.83;;;5.30;;
78781;SDS011;68126;55.748;48.742;2023-11-21T09:01:58;7.95;;;5.03;;
78781;SDS011;68126;55.748;48.742;2023-11-21T09:07:23;9.25;;;5.33;;
78781;SDS011;68126;55.748;48.742;2023-11-21T09:12:48;9.70;;;7.70;;
78781;SDS011;68126;55.748;48.742;2023-11-21T09:18:14;10.05;;;5.65;;
78781;SDS011;68126;55.748;48.742;2023-11-21T09:23:39;9.55;;;5.30;;
78781;SDS011;68126;55.748;48.742;2023-11-21T09:29:03;11.30;;;8.33;;
78781;SDS011;68126;55.748;48.742;2023-11-21T09:34:30;8.70;;;4.83;;
78781;SDS011;68126;55.748;48.742;2023-11-21T09:39:55;10.10;;;7.55;;
78781;SDS011;68126;55.748;48.742;2023-11-21T09:51:04;15.10;;;10.05;;
78781;SDS011;68126;55.748;48.742;2023-11-21T09:56:30;12.60;;;6.42;;
78781;SDS011;68126;55.748;48.742;2023-11-21T10:01:57;14.43;;;6.72;;
78781;SDS011;68126;55.748;48.742;2023-11-21T10:07:22;10.72;;;6.05;;
78781;SDS011;68126;55.748;48.742;2023-11-21T10:18:32;18.15;;;10.08;;
78781;SDS011;68126;55.748;48.742;2023-11-21T10:23:59;14.20;;;6.35;;
78781;SDS011;68126;55.748;48.742;2023-11-21T10:29:24;14.05;;;8.70;;
78781;SDS011;68126;55.748;48.742;2023-11-21T10:40:34;10.25;;;8.20;;
78781;SDS011;68126;55.748;48.742;2023-11-21T10:46:01;11.03;;;7.92;;
78781;SDS011;68126;55.748;48.742;2023-11-21T11:02:37;11.85;;;8.00;;
78781;SDS011;68126;55.748;48.742;2023-11-21T11:08:04;9.73;;;6.90;;
78781;SDS011;68126;55.748;48.742;2023-11-21T11:13:28;8.43;;;6.50;;
78781;SDS011;68126;55.748;48.742;2023-11-21T11:18:54;9.75;;;6.42;;
78781;SDS011;68126;55.748;48.742;2023-11-21T11:47:57;11.50;;;7.37;;
78781;SDS011;68126;55.748;48.742;2023-11-21T11:59:25;9.03;;;7.05;;
78781;SDS011;68126;55.748;48.742;2023-11-21T12:04:45;12.93;;;5.70;;
78781;SDS011;68126;55.748;48.742;2023-11-21T12:10:43;11.80;;;6.92;;
78781;SDS011;68126;55.748;48.742;2023-11-21T12:21:12;14.15;;;7.95;;
78781;SDS011;68126;55.748;48.742;2023-11-21T12:26:39;9.63;;;5.53;;
78781;SDS011;68126;55.748;48.742;2023-11-21T12:32:04;11.20;;;7.45;;
78781;SDS011;68126;55.748;48.742;2023-11-21T12:37:30;11.63;;;8.58;;
78781;SDS011;68126;55.748;48.742;2023-11-21T12:42:56;12.70;;;6.20;;
78781;SDS011;68126;55.748;48.742;2023-11-21T12:48:21;12.60;;;8.30;;
78781;SDS011;68126;55.748;48.742;2023-11-21T12:53:47;10.58;;;5.30;;
78781;SDS011;68126;55.748;48.742;2023-11-21T12:59:13;11.80;;;7.40;;
78781;SDS011;68126;55.748;48.742;2023-11-21T13:04:39;12.98;;;7.90;;
78781;SDS011;68126;55.748;48.742;2023-11-21T13:10:04;11.25;;;7.15;;
78781;SDS011;68126;55.748;48.742;2023-11-21T13:15:30;10.63;;;4.87;;
78781;SDS011;68126;55.748;48.742;2023-11-21T13:20:57;9.83;;;5.30;;
78781;SDS011;68126;55.748;48.742;2023-11-21T13:26:22;11.08;;;6.92;;
78781;SDS011;68126;55.748;48.742;2023-11-21T13:31:48;11.75;;;7.75;;
78781;SDS011;68126;55.748;48.742;2023-11-21T13:37:13;11.05;;;5.58;;
78781;SDS011;68126;55.748;48.742;2023-11-21T13:42:37;9.50;;;7.15;;
78781;SDS011;68126;55.748;48.742;2023-11-21T13:48:03;11.08;;;6.42;;
78781;SDS011;68126;55.748;48.742;2023-11-21T13:53:29;11.38;;;7.25;;
78781;SDS011;68126;55.748;48.742;2023-11-21T13:58:53;9.33;;;7.28;;
78781;SDS011;68126;55.748;48.742;2023-11-21T14:04:18;9.03;;;6.15;;
78781;SDS011;68126;55.748;48.742;2023-11-21T14:09:44;7.15;;;5.25;;
78781;SDS011;68126;55.748;48.742;2023-11-21T14:15:11;6.33;;;5.00;;
78781;SDS011;68126;55.748;48.742;2023-11-21T14:20:37;6.50;;;4.12;;
78781;SDS011;68126;55.748;48.742;2023-11-21T14:26:03;6.80;;;3.67;;
78781;SDS011;68126;55.748;48.742;2023-11-21T14:31:29;8.75;;;5.70;;
78781;SDS011;68126;55.748;48.742;2023-11-21T14:36:54;10.38;;;6.03;;
78781;SDS011;68126;55.748;48.742;2023-11-21T14:42:19;6.30;;;4.28;;
78781;SDS011;68126;55.748;48.742;2023-11-21T14:47:45;7.85;;;4.90;;
78781;SDS011;68126;55.748;48.742;2023-11-21T14:53:12;7.58;;;4.30;;
78781;SDS011;68126;55.748;48.742;2023-11-21T14:58:37;8.28;;;6.67;;
78781;SDS011;68126;55.748;48.742;2023-11-21T15:04:02;5.47;;;4.60;;
78781;SDS011;68126;55.748;48.742;2023-11-21T15:09:28;8.25;;;4.30;;
78781;SDS011;68126;55.748;48.742;2023-11-21T15:15:12;8.30;;;6.35;;
78781;SDS011;68126;55.748;48.742;2023-11-21T15:20:37;8.35;;;4.70;;
78781;SDS011;68126;55.748;48.742;2023-11-21T15:26:02;7.85;;;5.60;;
78781;SDS011;68126;55.748;48.742;2023-11-21T15:31:27;8.45;;;5.17;;
78781;SDS011;68126;55.748;48.742;2023-11-21T15:36:52;8.45;;;6.72;;
78781;SDS011;68126;55.748;48.742;2023-11-21T15:42:17;5.58;;;4.83;;
78781;SDS011;68126;55.748;48.742;2023-11-21T15:47:42;6.70;;;4.42;;
78781;SDS011;68126;55.748;48.742;2023-11-21T15:53:06;9.23;;;6.28;;
78781;SDS011;68126;55.748;48.742;2023-11-21T15:58:31;7.08;;;5.78;;
78781;SDS011;68126;55.748;48.742;2023-11-21T16:03:56;6.47;;;5.78;;
78781;SDS011;68126;55.748;48.742;2023-11-21T16:09:22;5.67;;;4.00;;
78781;SDS011;68126;55.748;48.742;2023-11-21T16:15:09;6.67;;;4.62;;
78781;SDS011;68126;55.748;48.742;2023-11-21T16:20:34;6.72;;;6.08;;
78781;SDS011;68126;55.748;48.742;2023-11-21T16:25:58;5.95;;;5.35;;
78781;SDS011;68126;55.748;48.742;2023-11-21T16:31:23;5.53;;;4.83;;
78781;SDS011;68126;55.748;48.742;2023-11-21T16:36:48;6.92;;;5.40;;
78781;SDS011;68126;55.748;48.742;2023-11-21T16:42:13;5.15;;;4.53;;
78781;SDS011;68126;55.748;48.742;2023-11-21T16:47:37;4.22;;;3.92;;
78781;SDS011;68126;55.748;48.742;2023-11-21T16:53:03;6.25;;;4.45;;
78781;SDS011;68126;55.748;48.742;2023-11-21T16:58:29;6.75;;;6.15;;
78781;SDS011;68126;55.748;48.742;2023-11-21T17:03:55;7.22;;;6.15;;
78781;SDS011;68126;55.748;48.742;2023-11-21T17:09:20;4.85;;;4.35;;
78781;SDS011;68126;55.748;48.742;2023-11-21T17:14:45;6.60;;;5.03;;
78781;SDS011;68126;55.748;48.742;2023-11-21T17:25:38;7.75;;;4.95;;
78781;SDS011;68126;55.748;48.742;2023-11-21T17:31:03;6.28;;;5.70;;
78781;SDS011;68126;55.748;48.742;2023-11-21T17:36:28;4.80;;;2.35;;
78781;SDS011;68126;55.748;48.742;2023-11-21T17:41:53;5.67;;;4.35;;
78781;SDS011;68126;55.748;48.742;2023-11-21T17:47:18;5.47;;;4.92;;
78781;SDS011;68126;55.748;48.742;2023-11-21T17:52:44;9.80;;;5.05;;
78781;SDS011;68126;55.748;48.742;2023-11-21T17:58:09;4.95;;;4.42;;
78781;SDS011;68126;55.748;48.742;2023-11-21T18:03:35;9.33;;;7.10;;
78781;SDS011;68126;55.748;48.742;2023-11-21T18:09:00;3.60;;;2.75;;
78781;SDS011;68126;55.748;48.742;2023-11-21T18:14:25;7.37;;;5.03;;
78781;SDS011;68126;55.748;48.742;2023-11-21T18:19:52;6.58;;;4.72;;
78781;SDS011;68126;55.748;48.742;2023-11-21T18:25:36;7.15;;;4.55;;
78781;SDS011;68126;55.748;48.742;2023-11-21T18:31:04;6.62;;;5.00;;
78781;SDS011;68126;55.748;48.742;2023-11-21T18:36:27;6.95;;;6.30;;
78781;SDS011;68126;55.748;48.742;2023-11-21T18:41:52;5.30;;;4.80;;
78781;SDS011;68126;55.748;48.742;2023-11-21T18:47:20;8.43;;;5.17;;
78781;SDS011;68126;55.748;48.742;2023-11-21T18:52:45;5.20;;;4.70;;
78781;SDS011;68126;55.748;48.742;2023-11-21T18:58:11;4.58;;;4.08;;
78781;SDS011;68126;55.748;48.742;2023-11-21T19:03:37;8.23;;;5.75;;
78781;SDS011;68126;55.748;48.742;2023-11-21T19:09:02;8.70;;;6.25;;
78781;SDS011;68126;55.748;48.742;2023-11-21T19:14:27;5.75;;;5.17;;
78781;SDS011;68126;55.748;48.742;2023-11-21T19:19:51;4.53;;;3.95;;
78781;SDS011;68126;55.748;48.742;2023-11-21T19:25:16;5.25;;;4.30;;
78781;SDS011;68126;55.748;48.742;2023-11-21T19:30:41;7.65;;;6.92;;
78781;SDS011;68126;55.748;48.742;2023-11-21T19:36:06;6.10;;;5.40;;
78781;SDS011;68126;55.748;48.742;2023-11-21T19:41:31;5.28;;;4.78;;
78781;SDS011;68126;55.748;48.742;2023-11-21T19:46:56;7.33;;;6.37;;
78781;SDS011;68126;55.748;48.742;2023-11-21T19:52:21;6.90;;;5.15;;
78781;SDS011;68126;55.748;48.742;2023-11-21T19:57:47;5.58;;;4.25;;
78781;SDS011;68126;55.748;48.742;2023-11-21T20:03:12;4.92;;;4.50;;
78781;SDS011;68126;55.748;48.742;2023-11-21T20:08:37;6.40;;;5.80;;
78781;SDS011;68126;55.748;48.742;2023-11-21T20:14:01;5.03;;;4.10;;
78781;SDS011;68126;55.748;48.742;2023-11-21T20:19:26;3.22;;;2.62;;
78781;SDS011;68126;55.748;48.742;2023-11-21T20:24:52;6.20;;;4.70;;
78781;SDS011;68126;55.748;48.742;2023-11-21T20:30:17;5.80;;;5.30;;
78781;SDS011;68126;55.748;48.742;2023-11-21T20:35:42;4.80;;;4.08;;
78781;SDS011;68126;55.748;48.742;2023-11-21T20:41:07;4.47;;;4.08;;
78781;SDS011;68126;55.748;48.742;2023-11-21T20:52:20;4.62;;;4.22;;
78781;SDS011;68126;55.748;48.742;2023-11-21T20:57:44;5.17;;;4.78;;
78781;SDS011;68126;55.748;48.742;2023-11-21T21:03:09;5.65;;;5.15;;
78781;SDS011;68126;55.748;48.742;2023-11-21T21:08:35;4.70;;;3.92;;
78781;SDS011;68126;55.748;48.742;2023-11-21T21:14:00;5.17;;;4.67;;
78781;SDS011;68126;55.748;48.742;2023-11-21T21:19:25;3.92;;;3.60;;
78781;SDS011;68126;55.748;48.742;2023-11-21T21:24:50;6.00;;;4.47;;
78781;SDS011;68126;55.748;48.742;2023-11-21T21:30:15;5.97;;;5.22;;
78781;SDS011;68126;55.748;48.742;2023-11-21T21:35:40;6.50;;;5.87;;
78781;SDS011;68126;55.748;48.742;2023-11-21T21:46:49;7.20;;;3.65;;
78781;SDS011;68126;55.748;48.742;2023-11-21T21:52:14;5.08;;;3.87;;
78781;SDS011;68126;55.748;48.742;2023-11-21T21:57:40;6.47;;;4.30;;
78781;SDS011;68126;55.748;48.742;2023-11-21T22:03:05;4.90;;;4.53;;
78781;SDS011;68126;55.748;48.742;2023-11-21T22:08:31;4.33;;;3.92;;
78781;SDS011;68126;55.748;48.742;2023-11-21T22:13:55;5.08;;;4.55;;
78781;SDS011;68126;55.748;48.742;2023-11-21T22:19:20;2.85;;;2.47;;
78781;SDS011;68126;55.748;48.742;2023-11-21T22:24:45;4.17;;;3.80;;
78781;SDS011;68126;55.748;48.742;2023-11-21T22:30:10;5.12;;;4.53;;
78781;SDS011;68126;55.748;48.742;2023-11-21T22:35:35;6.17;;;4.05;;
78781;SDS011;68126;55.748;48.742;2023-11-21T22:41:01;4.55;;;4.15;;
78781;SDS011;68126;55.748;48.742;2023-11-21T22:46:27;4.40;;;3.95;;
78781;SDS011;68126;55.748;48.742;2023-11-21T22:51:52;7.87;;;6.70;;
78781;SDS011;68126;55.748;48.742;2023-11-21T22:57:16;2.95;;;2.75;;
78781;SDS011;68126;55.748;48.742;2023-11-21T23:02:41;4.15;;;3.77;;
78781;SDS011;68126;55.748;48.742;2023-11-21T23:08:06;4.65;;;4.28;;
78781;SDS011;68126;55.748;48.742;2023-11-21T23:13:31;3.50;;;3.20;;
78781;SDS011;68126;55.748;48.742;2023-11-21T23:18:56;4.95;;;4.42;;
78781;SDS011;68126;55.748;48.742;2023-11-21T23:24:21;4.30;;;3.90;;
78781;SDS011;68126;55.748;48.742;2023-11-21T23:29:46;3.92;;;3.62;;
78781;SDS011;68126;55.748;48.742;2023-11-21T23:35:12;6.42;;;3.95;;
78781;SDS011;68126;55.748;48.742;2023-11-21T23:40:36;4.58;;;4.17;;
78781;SDS011;68126;55.748;48.742;2023-11-21T23:46:01;3.50;;;3.20;;
78781;SDS011;68126;55.748;48.742;2023-11-21T23:51:26;4.40;;;4.00;;
78781;SDS011;68126;55.748;48.742;2023-11-21T23:56:51;4.42;;;2.98;;
